sensor_id;sensor_type;location;lat;lon;timestamp;temperature;humidity
480;DHT22;226;48.606;9.096;2022-10-31T09:50:58;14.40;60.40
480;DHT22;226;48.606;9.096;2022-10-31T09:53:34;15.00;62.20
480;DHT22;226;48.606;9.096;2022-10-31T09:56:06;15.00;65.20
480;DHT22;226;48.606;9.096;2022-10-31T09:58:41;14.80;62.30
480;DHT22;226;48.606;9.096;2022-10-31T10:01:21;15.10;60.70
480;DHT22;226;48.606;9.096;2022-10-31T10:03:55;15.10;59.90
480;DHT22;226;48.606;9.096;2022-10-31T10:06:26;15.30;59.30
480;DHT22;226;48.606;9.096;2022-10-31T10:08:56;15.40;58.10
480;DHT22;226;48.606;9.096;2022-10-31T10:11:37;15.70;57.70
480;DHT22;226;48.606;9.096;2022-10-31T10:14:19;16.30;58.00
480;DHT22;226;48.606;9.096;2022-10-31T10:17:09;16.20;65.10
480;DHT22;226;48.606;9.096;2022-10-31T10:19:55;15.80;66.50
480;DHT22;226;48.606;9.096;2022-10-31T10:22:32;16.10;62.20
480;DHT22;226;48.606;9.096;2022-10-31T10:25:14;16.60;65.40
480;DHT22;226;48.606;9.096;2022-10-31T10:27:51;16.40;62.30
480;DHT22;226;48.606;9.096;2022-10-31T10:30:26;16.50;62.60
480;DHT22;226;48.606;9.096;2022-10-31T10:32:58;16.80;61.10
480;DHT22;226;48.606;9.096;2022-10-31T10:35:30;16.70;77.80
480;DHT22;226;48.606;9.096;2022-10-31T10:38:02;16.90;57.00
480;DHT22;226;48.606;9.096;2022-10-31T10:40:33;17.10;57.60
480;DHT22;226;48.606;9.096;2022-10-31T10:43:19;17.20;56.80
480;DHT22;226;48.606;9.096;2022-10-31T10:46:05;17.10;56.90
480;DHT22;226;48.606;9.096;2022-10-31T10:48:57;16.90;54.60
480;DHT22;226;48.606;9.096;2022-10-31T10:51:33;17.40;55.90
480;DHT22;226;48.606;9.096;2022-10-31T10:54:43;17.30;55.80
480;DHT22;226;48.606;9.096;2022-10-31T10:57:27;17.60;55.60
480;DHT22;226;48.606;9.096;2022-10-31T11:00:00;17.80;52.50
480;DHT22;226;48.606;9.096;2022-10-31T11:02:31;18.00;55.90
480;DHT22;226;48.606;9.096;2022-10-31T11:05:01;17.90;57.50
480;DHT22;226;48.606;9.096;2022-10-31T11:07:38;18.20;69.70
480;DHT22;226;48.606;9.096;2022-10-31T11:10:12;18.40;54.30
480;DHT22;226;48.606;9.096;2022-10-31T11:12:44;18.50;53.40
480;DHT22;226;48.606;9.096;2022-10-31T11:15:19;18.90;52.90
480;DHT22;226;48.606;9.096;2022-10-31T11:17:49;18.60;48.90
480;DHT22;226;48.606;9.096;2022-10-31T11:20:29;18.70;49.20
480;DHT22;226;48.606;9.096;2022-10-31T11:23:04;18.40;48.70
480;DHT22;226;48.606;9.096;2022-10-31T11:25:33;18.80;49.50
480;DHT22;226;48.606;9.096;2022-10-31T11:28:04;18.30;47.90
480;DHT22;226;48.606;9.096;2022-10-31T11:30:45;18.40;64.40
480;DHT22;226;48.606;9.096;2022-10-31T11:33:19;18.60;49.20
480;DHT22;226;48.606;9.096;2022-10-31T11:35:49;18.50;48.20
480;DHT22;226;48.606;9.096;2022-10-31T11:38:29;18.60;45.90
480;DHT22;226;48.606;9.096;2022-10-31T11:41:07;18.70;46.10
480;DHT22;226;48.606;9.096;2022-10-31T11:43:38;18.80;46.10
480;DHT22;226;48.606;9.096;2022-10-31T11:46:11;18.80;44.90
480;DHT22;226;48.606;9.096;2022-10-31T11:48:40;18.80;44.70
480;DHT22;226;48.606;9.096;2022-10-31T11:51:20;18.80;44.40
480;DHT22;226;48.606;9.096;2022-10-31T11:53:51;19.10;45.00
480;DHT22;226;48.606;9.096;2022-10-31T11:56:26;19.00;45.00
480;DHT22;226;48.606;9.096;2022-10-31T11:59:01;19.00;58.80
480;DHT22;226;48.606;9.096;2022-10-31T12:01:31;19.20;43.40
480;DHT22;226;48.606;9.096;2022-10-31T12:06:34;19.30;37.50
480;DHT22;226;48.606;9.096;2022-10-31T12:09:04;19.40;41.60
480;DHT22;226;48.606;9.096;2022-10-31T12:11:45;19.50;41.40
480;DHT22;226;48.606;9.096;2022-10-31T12:14:27;19.70;40.00
480;DHT22;226;48.606;9.096;2022-10-31T12:16:59;19.80;40.30
480;DHT22;226;48.606;9.096;2022-10-31T12:19:36;19.90;39.60
480;DHT22;226;48.606;9.096;2022-10-31T12:22:13;19.90;39.60
480;DHT22;226;48.606;9.096;2022-10-31T12:25:00;19.80;39.40
480;DHT22;226;48.606;9.096;2022-10-31T12:27:48;19.50;58.80
480;DHT22;226;48.606;9.096;2022-10-31T12:30:25;19.70;40.10
480;DHT22;226;48.606;9.096;2022-10-31T12:33:11;19.80;40.20
480;DHT22;226;48.606;9.096;2022-10-31T12:35:47;19.70;39.70
480;DHT22;226;48.606;9.096;2022-10-31T12:38:35;19.50;38.40
480;DHT22;226;48.606;9.096;2022-10-31T12:41:14;19.60;39.10
480;DHT22;226;48.606;9.096;2022-10-31T12:43:48;19.60;39.00
480;DHT22;226;48.606;9.096;2022-10-31T12:46:34;19.50;38.30
480;DHT22;226;48.606;9.096;2022-10-31T12:49:21;19.30;39.70
480;DHT22;226;48.606;9.096;2022-10-31T12:52:10;19.40;40.40
480;DHT22;226;48.606;9.096;2022-10-31T12:54:51;19.60;39.20
480;DHT22;226;48.606;9.096;2022-10-31T12:57:30;19.30;55.20
480;DHT22;226;48.606;9.096;2022-10-31T13:00:02;19.40;39.70
480;DHT22;226;48.606;9.096;2022-10-31T13:02:35;19.40;39.20
480;DHT22;226;48.606;9.096;2022-10-31T13:05:14;19.60;38.80
480;DHT22;226;48.606;9.096;2022-10-31T13:07:48;19.50;39.30
480;DHT22;226;48.606;9.096;2022-10-31T13:10:20;19.40;39.60
480;DHT22;226;48.606;9.096;2022-10-31T13:12:53;19.40;39.70
480;DHT22;226;48.606;9.096;2022-10-31T13:15:24;19.40;37.50
480;DHT22;226;48.606;9.096;2022-10-31T13:17:56;19.30;38.00
480;DHT22;226;48.606;9.096;2022-10-31T13:20:28;19.40;39.40
480;DHT22;226;48.606;9.096;2022-10-31T13:23:05;19.40;39.30
480;DHT22;226;48.606;9.096;2022-10-31T13:25:59;19.50;39.30
480;DHT22;226;48.606;9.096;2022-10-31T13:28:33;19.50;38.60
480;DHT22;226;48.606;9.096;2022-10-31T13:31:03;19.60;40.50
480;DHT22;226;48.606;9.096;2022-10-31T13:33:35;19.70;36.90
480;DHT22;226;48.606;9.096;2022-10-31T13:36:15;19.80;37.10
480;DHT22;226;48.606;9.096;2022-10-31T13:38:51;19.90;35.60
480;DHT22;226;48.606;9.096;2022-10-31T13:41:29;20.00;36.90
480;DHT22;226;48.606;9.096;2022-10-31T13:44:00;20.30;36.90
480;DHT22;226;48.606;9.096;2022-10-31T13:46:36;20.20;38.00
480;DHT22;226;48.606;9.096;2022-10-31T13:49:23;20.30;38.60
480;DHT22;226;48.606;9.096;2022-10-31T13:51:52;20.40;37.80
480;DHT22;226;48.606;9.096;2022-10-31T13:54:22;20.50;36.70
480;DHT22;226;48.606;9.096;2022-10-31T13:56:50;20.50;35.90
480;DHT22;226;48.606;9.096;2022-10-31T13:59:21;20.60;35.70
480;DHT22;226;48.606;9.096;2022-10-31T14:01:54;20.90;49.70
480;DHT22;226;48.606;9.096;2022-10-31T14:06:57;22.00;63.10
480;DHT22;226;48.606;9.096;2022-10-31T14:09:31;22.80;52.50
480;DHT22;226;48.606;9.096;2022-10-31T14:12:03;22.90;33.70
480;DHT22;226;48.606;9.096;2022-10-31T14:14:43;23.70;36.20
480;DHT22;226;48.606;9.096;2022-10-31T14:20:03;25.00;44.50
480;DHT22;226;48.606;9.096;2022-10-31T14:22:48;25.50;38.80
480;DHT22;226;48.606;9.096;2022-10-31T14:25:30;26.20;37.50
480;DHT22;226;48.606;9.096;2022-10-31T14:28:01;26.40;40.30
480;DHT22;226;48.606;9.096;2022-10-31T14:30:31;27.00;38.70
480;DHT22;226;48.606;9.096;2022-10-31T14:33:01;27.20;37.50
480;DHT22;226;48.606;9.096;2022-10-31T14:35:42;27.20;37.40
480;DHT22;226;48.606;9.096;2022-10-31T14:41:36;27.00;39.70
480;DHT22;226;48.606;9.096;2022-10-31T14:46:56;26.20;32.10
480;DHT22;226;48.606;9.096;2022-10-31T14:49:46;25.40;35.20
480;DHT22;226;48.606;9.096;2022-10-31T14:52:18;25.00;32.50
480;DHT22;226;48.606;9.096;2022-10-31T14:57:21;23.90;48.80
480;DHT22;226;48.606;9.096;2022-10-31T14:59:53;23.20;47.00
480;DHT22;226;48.606;9.096;2022-10-31T15:02:31;21.50;56.80
480;DHT22;226;48.606;9.096;2022-10-31T15:05:05;20.90;56.30
480;DHT22;226;48.606;9.096;2022-10-31T15:10:19;19.60;54.00
480;DHT22;226;48.606;9.096;2022-10-31T15:12:48;19.20;58.70
480;DHT22;226;48.606;9.096;2022-10-31T15:15:19;18.50;60.90
480;DHT22;226;48.606;9.096;2022-10-31T15:20:18;18.40;67.10
480;DHT22;226;48.606;9.096;2022-10-31T15:22:49;17.80;62.20
480;DHT22;226;48.606;9.096;2022-10-31T15:25:19;18.10;64.30
480;DHT22;226;48.606;9.096;2022-10-31T15:27:48;17.60;67.50
480;DHT22;226;48.606;9.096;2022-10-31T15:32:47;16.60;76.40
480;DHT22;226;48.606;9.096;2022-10-31T15:35:25;16.70;79.20
480;DHT22;226;48.606;9.096;2022-10-31T15:37:55;16.40;76.90
480;DHT22;226;48.606;9.096;2022-10-31T15:40:26;16.80;79.10
480;DHT22;226;48.606;9.096;2022-10-31T15:42:56;16.20;79.70
480;DHT22;226;48.606;9.096;2022-10-31T15:45:26;16.10;79.20
480;DHT22;226;48.606;9.096;2022-10-31T15:47:57;16.10;79.00
480;DHT22;226;48.606;9.096;2022-10-31T15:50:29;15.90;82.70
480;DHT22;226;48.606;9.096;2022-10-31T15:53:00;15.70;82.50
480;DHT22;226;48.606;9.096;2022-10-31T15:55:32;15.70;83.40
480;DHT22;226;48.606;9.096;2022-10-31T15:58:02;16.20;85.70
480;DHT22;226;48.606;9.096;2022-10-31T16:00:33;15.30;89.70
480;DHT22;226;48.606;9.096;2022-10-31T16:03:06;15.20;87.80
480;DHT22;226;48.606;9.096;2022-10-31T16:05:37;15.40;89.00
480;DHT22;226;48.606;9.096;2022-10-31T16:08:23;15.70;88.80
480;DHT22;226;48.606;9.096;2022-10-31T16:10:52;15.10;87.50
480;DHT22;226;48.606;9.096;2022-10-31T16:13:24;15.30;88.70
480;DHT22;226;48.606;9.096;2022-10-31T16:15:55;14.40;89.50
480;DHT22;226;48.606;9.096;2022-10-31T16:18:44;16.00;89.50
480;DHT22;226;48.606;9.096;2022-10-31T16:21:12;15.10;87.60
480;DHT22;226;48.606;9.096;2022-10-31T16:23:53;15.30;88.40
480;DHT22;226;48.606;9.096;2022-10-31T16:26:24;14.70;87.30
480;DHT22;226;48.606;9.096;2022-10-31T16:28:53;15.20;89.70
480;DHT22;226;48.606;9.096;2022-10-31T16:31:36;15.30;90.20
480;DHT22;226;48.606;9.096;2022-10-31T17:41:34;12.20;99.90
480;DHT22;226;48.606;9.096;2022-10-31T17:44:02;12.10;99.90
480;DHT22;226;48.606;9.096;2022-10-31T17:46:30;12.10;99.90
480;DHT22;226;48.606;9.096;2022-10-31T17:48:58;12.10;99.90
480;DHT22;226;48.606;9.096;2022-10-31T17:51:27;12.10;99.90
480;DHT22;226;48.606;9.096;2022-10-31T17:53:56;12.00;99.90
480;DHT22;226;48.606;9.096;2022-10-31T17:56:24;13.10;99.90
480;DHT22;226;48.606;9.096;2022-10-31T17:58:54;12.10;98.30
480;DHT22;226;48.606;9.096;2022-10-31T18:01:23;11.90;98.70
480;DHT22;226;48.606;9.096;2022-10-31T18:03:51;11.80;99.90
480;DHT22;226;48.606;9.096;2022-10-31T18:06:19;11.80;99.90
480;DHT22;226;48.606;9.096;2022-10-31T18:11:19;11.80;99.90
480;DHT22;226;48.606;9.096;2022-10-31T18:13:55;11.70;99.90
480;DHT22;226;48.606;9.096;2022-10-31T18:16:24;12.50;99.90
480;DHT22;226;48.606;9.096;2022-10-31T18:18:53;11.50;99.90
480;DHT22;226;48.606;9.096;2022-10-31T18:21:22;11.60;99.90
480;DHT22;226;48.606;9.096;2022-10-31T18:23:53;11.70;99.90
480;DHT22;226;48.606;9.096;2022-10-31T18:26:22;11.50;99.90
480;DHT22;226;48.606;9.096;2022-10-31T18:28:50;11.70;99.90
480;DHT22;226;48.606;9.096;2022-10-31T18:31:20;11.50;98.20
480;DHT22;226;48.606;9.096;2022-10-31T18:33:50;11.50;98.10
480;DHT22;226;48.606;9.096;2022-10-31T18:36:18;11.80;99.00
480;DHT22;226;48.606;9.096;2022-10-31T18:38:47;11.40;98.30
480;DHT22;226;48.606;9.096;2022-10-31T18:41:15;12.40;99.20
480;DHT22;226;48.606;9.096;2022-10-31T18:43:43;12.80;99.40
480;DHT22;226;48.606;9.096;2022-10-31T18:46:13;11.70;98.90
480;DHT22;226;48.606;9.096;2022-10-31T18:48:43;12.60;98.40
480;DHT22;226;48.606;9.096;2022-10-31T18:51:12;11.30;97.60
480;DHT22;226;48.606;9.096;2022-10-31T18:53:49;11.00;97.90
480;DHT22;226;48.606;9.096;2022-10-31T18:56:17;12.50;99.10
480;DHT22;226;48.606;9.096;2022-10-31T18:58:46;11.30;99.20
480;DHT22;226;48.606;9.096;2022-10-31T19:01:14;11.50;99.70
480;DHT22;226;48.606;9.096;2022-10-31T19:03:44;12.40;99.90
480;DHT22;226;48.606;9.096;2022-10-31T19:06:12;11.50;99.20
480;DHT22;226;48.606;9.096;2022-10-31T19:08:40;11.50;99.10
480;DHT22;226;48.606;9.096;2022-10-31T19:11:10;11.40;99.40
480;DHT22;226;48.606;9.096;2022-10-31T19:13:39;11.40;98.90
480;DHT22;226;48.606;9.096;2022-10-31T19:16:09;11.30;99.50
480;DHT22;226;48.606;9.096;2022-10-31T19:18:38;11.10;99.90
480;DHT22;226;48.606;9.096;2022-10-31T19:21:09;11.20;99.90
480;DHT22;226;48.606;9.096;2022-10-31T19:23:37;11.50;99.90
480;DHT22;226;48.606;9.096;2022-10-31T19:26:06;11.80;99.90
480;DHT22;226;48.606;9.096;2022-10-31T19:31:06;11.20;99.90
480;DHT22;226;48.606;9.096;2022-10-31T19:33:35;11.00;99.90
480;DHT22;226;48.606;9.096;2022-10-31T19:36:05;11.10;99.90
480;DHT22;226;48.606;9.096;2022-10-31T19:38:37;11.20;99.90
480;DHT22;226;48.606;9.096;2022-10-31T19:41:07;11.20;99.90
480;DHT22;226;48.606;9.096;2022-10-31T19:43:35;11.10;99.90
480;DHT22;226;48.606;9.096;2022-10-31T19:46:04;11.20;99.90
480;DHT22;226;48.606;9.096;2022-10-31T19:48:38;11.20;99.90
480;DHT22;226;48.606;9.096;2022-10-31T19:51:08;11.10;99.90
480;DHT22;226;48.606;9.096;2022-10-31T19:53:38;11.20;99.90
480;DHT22;226;48.606;9.096;2022-10-31T19:56:10;11.20;99.90
480;DHT22;226;48.606;9.096;2022-10-31T19:58:39;11.30;99.90
480;DHT22;226;48.606;9.096;2022-10-31T20:01:07;11.30;99.90
480;DHT22;226;48.606;9.096;2022-10-31T20:06:06;11.30;99.40
480;DHT22;226;48.606;9.096;2022-10-31T20:08:34;10.90;99.90
480;DHT22;226;48.606;9.096;2022-10-31T20:11:06;11.00;99.90
480;DHT22;226;48.606;9.096;2022-10-31T20:13:35;11.00;99.90
480;DHT22;226;48.606;9.096;2022-10-31T20:16:05;11.00;99.90
480;DHT22;226;48.606;9.096;2022-10-31T20:18:34;10.90;99.90
480;DHT22;226;48.606;9.096;2022-10-31T20:21:04;10.90;99.90
480;DHT22;226;48.606;9.096;2022-10-31T20:23:33;10.90;99.90
480;DHT22;226;48.606;9.096;2022-10-31T20:26:02;11.00;99.90
480;DHT22;226;48.606;9.096;2022-10-31T20:28:32;11.10;99.90
480;DHT22;226;48.606;9.096;2022-10-31T20:31:08;10.90;99.90
480;DHT22;226;48.606;9.096;2022-10-31T20:33:37;11.10;99.90
480;DHT22;226;48.606;9.096;2022-10-31T20:36:06;11.20;99.90
480;DHT22;226;48.606;9.096;2022-10-31T20:38:36;11.20;99.90
480;DHT22;226;48.606;9.096;2022-10-31T20:41:07;11.30;99.90
480;DHT22;226;48.606;9.096;2022-10-31T20:43:37;11.20;99.90
480;DHT22;226;48.606;9.096;2022-10-31T20:46:08;11.20;99.90
480;DHT22;226;48.606;9.096;2022-10-31T20:48:37;11.20;99.90
480;DHT22;226;48.606;9.096;2022-10-31T20:51:08;11.00;99.90
480;DHT22;226;48.606;9.096;2022-10-31T20:53:37;11.10;99.90
480;DHT22;226;48.606;9.096;2022-10-31T20:56:06;11.10;99.90
480;DHT22;226;48.606;9.096;2022-10-31T20:58:37;11.20;99.90
480;DHT22;226;48.606;9.096;2022-10-31T21:01:09;11.10;99.90
480;DHT22;226;48.606;9.096;2022-10-31T21:08:37;11.00;99.60
480;DHT22;226;48.606;9.096;2022-10-31T21:11:07;11.00;99.90
480;DHT22;226;48.606;9.096;2022-10-31T21:13:39;11.10;99.90
480;DHT22;226;48.606;9.096;2022-10-31T21:16:09;11.00;99.90
480;DHT22;226;48.606;9.096;2022-10-31T21:18:38;11.00;99.90
480;DHT22;226;48.606;9.096;2022-10-31T21:21:08;10.90;99.90
480;DHT22;226;48.606;9.096;2022-10-31T23:42:01;11.40;99.90
480;DHT22;226;48.606;9.096;2022-10-31T23:44:29;11.40;99.90
480;DHT22;226;48.606;9.096;2022-10-31T23:46:58;11.20;99.90
480;DHT22;226;48.606;9.096;2022-10-31T23:49:26;11.30;99.90
480;DHT22;226;48.606;9.096;2022-10-31T23:51:54;11.30;99.90
480;DHT22;226;48.606;9.096;2022-10-31T23:54:27;11.30;99.90
480;DHT22;226;48.606;9.096;2022-10-31T23:56:55;11.30;99.90
480;DHT22;226;48.606;9.096;2022-10-31T23:59:24;11.20;99.90
